sensor_id;sensor_type;location;lat;lon;timestamp;pressure;altitude;pressure_sealevel;temperature;humidity
3598;BME280;1813;52.016;8.714;2023-01-09T00:02:21;-16261.94;;;-139.71;72.08
3598;BME280;1813;52.016;8.714;2023-01-09T00:04:55;-16261.94;;;-139.71;72.08
3598;BME280;1813;52.016;8.714;2023-01-09T00:07:31;-16261.94;;;-139.71;72.03
3598;BME280;1813;52.016;8.714;2023-01-09T00:10:07;-16261.94;;;-139.71;72.22
3598;BME280;1813;52.016;8.714;2023-01-09T00:12:41;-16261.94;;;-139.71;72.25
3598;BME280;1813;52.016;8.714;2023-01-09T00:15:14;-16261.94;;;-139.71;72.35
3598;BME280;1813;52.016;8.714;2023-01-09T00:17:48;-16261.94;;;-139.71;72.34
3598;BME280;1813;52.016;8.714;2023-01-09T00:20:22;-16261.94;;;-139.71;72.42
3598;BME280;1813;52.016;8.714;2023-01-09T00:22:58;-16261.94;;;-139.71;72.67
3598;BME280;1813;52.016;8.714;2023-01-09T00:25:32;-16261.94;;;-139.71;72.72
3598;BME280;1813;52.016;8.714;2023-01-09T00:28:06;-16261.94;;;-139.71;72.64
3598;BME280;1813;52.016;8.714;2023-01-09T00:30:40;-16261.94;;;-139.71;72.92
3598;BME280;1813;52.016;8.714;2023-01-09T00:33:13;-16261.94;;;-139.71;73.04
3598;BME280;1813;52.016;8.714;2023-01-09T00:35:49;-16261.94;;;-139.71;73.46
3598;BME280;1813;52.016;8.714;2023-01-09T00:38:25;-16261.94;;;-139.71;74.00
3598;BME280;1813;52.016;8.714;2023-01-09T00:40:59;-16261.94;;;-139.71;74.30
3598;BME280;1813;52.016;8.714;2023-01-09T00:43:37;-16261.94;;;-139.71;74.92
3598;BME280;1813;52.016;8.714;2023-01-09T00:46:13;-16261.94;;;-139.71;75.21
3598;BME280;1813;52.016;8.714;2023-01-09T00:48:48;-16261.94;;;-139.71;75.61
3598;BME280;1813;52.016;8.714;2023-01-09T00:51:22;-16261.94;;;-139.71;76.03
3598;BME280;1813;52.016;8.714;2023-01-09T00:53:58;-16261.94;;;-139.71;76.41
3598;BME280;1813;52.016;8.714;2023-01-09T00:56:35;-16261.94;;;-139.71;76.57
3598;BME280;1813;52.016;8.714;2023-01-09T00:59:09;-16261.94;;;-139.71;76.62
3598;BME280;1813;52.016;8.714;2023-01-09T01:01:42;-16261.94;;;-139.71;76.97
3598;BME280;1813;52.016;8.714;2023-01-09T01:04:16;-16261.94;;;-139.71;77.07
3598;BME280;1813;52.016;8.714;2023-01-09T01:07:03;-16261.94;;;-139.71;76.91
3598;BME280;1813;52.016;8.714;2023-01-09T01:09:51;-16261.94;;;-139.71;77.14
3598;BME280;1813;52.016;8.714;2023-01-09T01:12:25;-16261.94;;;-139.71;77.12
3598;BME280;1813;52.016;8.714;2023-01-09T01:14:59;-16261.94;;;-139.71;77.41
3598;BME280;1813;52.016;8.714;2023-01-09T01:17:33;-16261.94;;;-139.71;77.25
3598;BME280;1813;52.016;8.714;2023-01-09T01:20:10;-16261.94;;;-139.71;77.12
3598;BME280;1813;52.016;8.714;2023-01-09T01:22:45;-16261.94;;;-139.71;76.95
3598;BME280;1813;52.016;8.714;2023-01-09T01:25:21;-16261.94;;;-139.71;77.10
3598;BME280;1813;52.016;8.714;2023-01-09T01:27:55;-16261.94;;;-139.71;77.37
3598;BME280;1813;52.016;8.714;2023-01-09T01:30:30;-16261.94;;;-139.71;77.38
3598;BME280;1813;52.016;8.714;2023-01-09T01:33:04;-16261.94;;;-139.71;77.43
3598;BME280;1813;52.016;8.714;2023-01-09T01:35:37;-16261.94;;;-139.71;77.49
3598;BME280;1813;52.016;8.714;2023-01-09T01:38:11;-16261.94;;;-139.71;77.77
3598;BME280;1813;52.016;8.714;2023-01-09T01:40:54;-16261.94;;;-139.71;77.82
3598;BME280;1813;52.016;8.714;2023-01-09T01:43:33;-16261.94;;;-139.71;78.28
3598;BME280;1813;52.016;8.714;2023-01-09T01:46:21;-16261.94;;;-139.71;78.56
3598;BME280;1813;52.016;8.714;2023-01-09T01:48:58;-16261.94;;;-139.71;78.56
3598;BME280;1813;52.016;8.714;2023-01-09T01:51:38;-16261.94;;;-139.71;78.88
3598;BME280;1813;52.016;8.714;2023-01-09T01:54:19;-16261.94;;;-139.71;78.96
3598;BME280;1813;52.016;8.714;2023-01-09T01:56:59;-16261.94;;;-139.71;79.11
3598;BME280;1813;52.016;8.714;2023-01-09T01:59:37;-16261.94;;;-139.71;79.46
3598;BME280;1813;52.016;8.714;2023-01-09T02:02:15;-16261.94;;;-139.71;79.53
3598;BME280;1813;52.016;8.714;2023-01-09T02:04:50;-16261.94;;;-139.71;79.67
3598;BME280;1813;52.016;8.714;2023-01-09T02:07:26;-16261.94;;;-139.71;79.75
3598;BME280;1813;52.016;8.714;2023-01-09T02:10:00;-16261.94;;;-139.71;79.99
3598;BME280;1813;52.016;8.714;2023-01-09T02:12:37;-16261.94;;;-139.71;79.99
3598;BME280;1813;52.016;8.714;2023-01-09T02:15:12;-16261.94;;;-139.71;79.83
3598;BME280;1813;52.016;8.714;2023-01-09T02:18:07;-16261.94;;;-139.71;80.06
3598;BME280;1813;52.016;8.714;2023-01-09T02:20:53;-16261.94;;;-139.71;80.18
3598;BME280;1813;52.016;8.714;2023-01-09T02:26:58;-16261.94;;;-139.71;80.79
3598;BME280;1813;52.016;8.714;2023-01-09T02:29:45;-16261.94;;;-139.71;80.83
3598;BME280;1813;52.016;8.714;2023-01-09T02:32:36;-16261.94;;;-139.71;81.15
3598;BME280;1813;52.016;8.714;2023-01-09T02:35:22;-16261.94;;;-139.71;81.16
3598;BME280;1813;52.016;8.714;2023-01-09T02:38:04;-16261.94;;;-139.71;81.32
3598;BME280;1813;52.016;8.714;2023-01-09T02:40:45;-16261.94;;;-139.71;81.42
3598;BME280;1813;52.016;8.714;2023-01-09T02:43:20;-16261.94;;;-139.71;81.63
3598;BME280;1813;52.016;8.714;2023-01-09T02:45:54;-16261.94;;;-139.71;81.70
3598;BME280;1813;52.016;8.714;2023-01-09T02:48:31;-16261.94;;;-139.71;81.75
3598;BME280;1813;52.016;8.714;2023-01-09T02:51:11;-16261.94;;;-139.71;81.73
3598;BME280;1813;52.016;8.714;2023-01-09T02:54:02;-16261.94;;;-139.71;81.85
3598;BME280;1813;52.016;8.714;2023-01-09T02:57:13;-16261.94;;;-139.71;81.84
3598;BME280;1813;52.016;8.714;2023-01-09T03:00:02;-16261.94;;;-139.71;81.79
3598;BME280;1813;52.016;8.714;2023-01-09T03:02:42;-16261.94;;;-139.71;81.86
3598;BME280;1813;52.016;8.714;2023-01-09T03:05:24;-16261.94;;;-139.71;82.14
3598;BME280;1813;52.016;8.714;2023-01-09T03:08:00;-16261.94;;;-139.71;82.20
3598;BME280;1813;52.016;8.714;2023-01-09T03:10:39;-16261.94;;;-139.71;82.42
3598;BME280;1813;52.016;8.714;2023-01-09T03:13:16;-16261.94;;;-139.71;82.48
3598;BME280;1813;52.016;8.714;2023-01-09T03:15:52;-16261.94;;;-139.71;82.29
3598;BME280;1813;52.016;8.714;2023-01-09T03:18:30;-16261.94;;;-139.71;82.35
3598;BME280;1813;52.016;8.714;2023-01-09T03:21:07;-16261.94;;;-139.71;82.46
3598;BME280;1813;52.016;8.714;2023-01-09T03:23:51;-16261.94;;;-139.71;82.31
3598;BME280;1813;52.016;8.714;2023-01-09T03:26:24;-16261.94;;;-139.71;82.41
3598;BME280;1813;52.016;8.714;2023-01-09T03:28:58;-16261.94;;;-139.71;82.37
3598;BME280;1813;52.016;8.714;2023-01-09T03:31:32;-16261.94;;;-139.71;82.41
3598;BME280;1813;52.016;8.714;2023-01-09T03:34:06;-16261.94;;;-139.71;82.47
3598;BME280;1813;52.016;8.714;2023-01-09T03:36:42;-16261.94;;;-139.71;82.24
3598;BME280;1813;52.016;8.714;2023-01-09T03:39:16;-16261.94;;;-139.71;82.40
3598;BME280;1813;52.016;8.714;2023-01-09T03:41:49;-16261.94;;;-139.71;82.48
3598;BME280;1813;52.016;8.714;2023-01-09T03:44:23;-16261.94;;;-139.71;82.41
3598;BME280;1813;52.016;8.714;2023-01-09T03:46:57;-16261.94;;;-139.71;82.28
3598;BME280;1813;52.016;8.714;2023-01-09T03:49:30;-16261.94;;;-139.71;82.17
3598;BME280;1813;52.016;8.714;2023-01-09T03:52:07;-16261.94;;;-139.71;82.27
3598;BME280;1813;52.016;8.714;2023-01-09T03:54:43;-16261.94;;;-139.71;82.04
3598;BME280;1813;52.016;8.714;2023-01-09T03:57:17;-16261.94;;;-139.71;82.04
3598;BME280;1813;52.016;8.714;2023-01-09T03:59:50;-16261.94;;;-139.71;82.19
3598;BME280;1813;52.016;8.714;2023-01-09T04:02:24;-16261.94;;;-139.71;82.09
3598;BME280;1813;52.016;8.714;2023-01-09T04:04:58;-16261.94;;;-139.71;82.28
3598;BME280;1813;52.016;8.714;2023-01-09T04:07:34;-16261.94;;;-139.71;82.25
3598;BME280;1813;52.016;8.714;2023-01-09T04:10:09;-16261.94;;;-139.71;82.49
3598;BME280;1813;52.016;8.714;2023-01-09T04:12:43;-16261.94;;;-139.71;82.49
3598;BME280;1813;52.016;8.714;2023-01-09T04:15:17;-16261.94;;;-139.71;82.61
3598;BME280;1813;52.016;8.714;2023-01-09T04:17:50;-16261.94;;;-139.71;82.64
3598;BME280;1813;52.016;8.714;2023-01-09T04:20:24;-16261.94;;;-139.71;82.69
3598;BME280;1813;52.016;8.714;2023-01-09T04:23:01;-16261.94;;;-139.71;82.89
3598;BME280;1813;52.016;8.714;2023-01-09T04:25:34;-16261.94;;;-139.71;83.01
3598;BME280;1813;52.016;8.714;2023-01-09T04:28:08;-16261.94;;;-139.71;83.06
3598;BME280;1813;52.016;8.714;2023-01-09T04:30:42;-16261.94;;;-139.71;83.01
3598;BME280;1813;52.016;8.714;2023-01-09T04:33:15;-16261.94;;;-139.71;83.17
3598;BME280;1813;52.016;8.714;2023-01-09T04:35:49;-16261.94;;;-139.71;82.90
3598;BME280;1813;52.016;8.714;2023-01-09T04:38:25;-16261.94;;;-139.71;82.92
3598;BME280;1813;52.016;8.714;2023-01-09T04:40:59;-16261.94;;;-139.71;82.74
3598;BME280;1813;52.016;8.714;2023-01-09T04:43:33;-16261.94;;;-139.71;82.92
3598;BME280;1813;52.016;8.714;2023-01-09T04:46:07;-16261.94;;;-139.71;83.02
3598;BME280;1813;52.016;8.714;2023-01-09T04:48:40;-16261.94;;;-139.71;83.00
3598;BME280;1813;52.016;8.714;2023-01-09T04:51:14;-16261.94;;;-139.71;83.00
3598;BME280;1813;52.016;8.714;2023-01-09T04:53:50;-16261.94;;;-139.71;83.15
3598;BME280;1813;52.016;8.714;2023-01-09T04:56:24;-16261.94;;;-139.71;83.16
3598;BME280;1813;52.016;8.714;2023-01-09T04:58:58;-16261.94;;;-139.71;83.17
3598;BME280;1813;52.016;8.714;2023-01-09T05:01:32;-16261.94;;;-139.71;83.37
3598;BME280;1813;52.016;8.714;2023-01-09T05:04:06;-16261.94;;;-139.71;83.41
3598;BME280;1813;52.016;8.714;2023-01-09T05:06:40;-16261.94;;;-139.71;83.40
3598;BME280;1813;52.016;8.714;2023-01-09T05:09:16;-16261.94;;;-139.71;83.30
3598;BME280;1813;52.016;8.714;2023-01-09T05:11:51;-16261.94;;;-139.71;83.43
3598;BME280;1813;52.016;8.714;2023-01-09T05:14:25;-16261.94;;;-139.71;83.56
3598;BME280;1813;52.016;8.714;2023-01-09T05:16:59;-16261.94;;;-139.71;83.38
3598;BME280;1813;52.016;8.714;2023-01-09T05:19:32;-16261.94;;;-139.71;83.27
3598;BME280;1813;52.016;8.714;2023-01-09T05:22:06;-16261.94;;;-139.71;83.44
3598;BME280;1813;52.016;8.714;2023-01-09T05:24:43;-16261.94;;;-139.71;83.54
3598;BME280;1813;52.016;8.714;2023-01-09T05:27:17;-16261.94;;;-139.71;83.51
3598;BME280;1813;52.016;8.714;2023-01-09T05:29:50;-16261.94;;;-139.71;83.26
3598;BME280;1813;52.016;8.714;2023-01-09T05:32:24;-16261.94;;;-139.71;83.04
3598;BME280;1813;52.016;8.714;2023-01-09T05:34:58;-16261.94;;;-139.71;82.93
3598;BME280;1813;52.016;8.714;2023-01-09T05:37:31;-16261.94;;;-139.71;82.85
3598;BME280;1813;52.016;8.714;2023-01-09T05:40:09;-16261.94;;;-139.71;82.56
3598;BME280;1813;52.016;8.714;2023-01-09T05:42:43;-16261.94;;;-139.71;82.64
3598;BME280;1813;52.016;8.714;2023-01-09T05:45:18;-16261.94;;;-139.71;82.46
3598;BME280;1813;52.016;8.714;2023-01-09T05:47:51;-16261.94;;;-139.71;82.52
3598;BME280;1813;52.016;8.714;2023-01-09T05:50:25;-16261.94;;;-139.71;82.54
3598;BME280;1813;52.016;8.714;2023-01-09T05:52:59;-16261.94;;;-139.71;82.62
3598;BME280;1813;52.016;8.714;2023-01-09T05:55:36;-16261.94;;;-139.71;82.54
3598;BME280;1813;52.016;8.714;2023-01-09T05:58:09;-16261.94;;;-139.71;82.59
3598;BME280;1813;52.016;8.714;2023-01-09T06:00:43;-16261.94;;;-139.71;82.52
3598;BME280;1813;52.016;8.714;2023-01-09T06:03:16;-16261.94;;;-139.71;82.57
3598;BME280;1813;52.016;8.714;2023-01-09T06:05:50;-16261.94;;;-139.71;82.51
3598;BME280;1813;52.016;8.714;2023-01-09T06:08:24;-16261.94;;;-139.71;82.36
3598;BME280;1813;52.016;8.714;2023-01-09T06:11:00;-16261.94;;;-139.71;82.34
3598;BME280;1813;52.016;8.714;2023-01-09T06:13:34;-16261.94;;;-139.71;82.27
3598;BME280;1813;52.016;8.714;2023-01-09T06:16:08;-16261.94;;;-139.71;82.21
3598;BME280;1813;52.016;8.714;2023-01-09T06:18:43;-16261.94;;;-139.71;82.00
3598;BME280;1813;52.016;8.714;2023-01-09T06:21:16;-16261.94;;;-139.71;81.84
3598;BME280;1813;52.016;8.714;2023-01-09T06:23:50;-16261.94;;;-139.71;81.77
3598;BME280;1813;52.016;8.714;2023-01-09T06:26:26;-16261.94;;;-139.71;81.59
3598;BME280;1813;52.016;8.714;2023-01-09T06:29:00;-16261.94;;;-139.71;81.57
3598;BME280;1813;52.016;8.714;2023-01-09T06:31:34;-16261.94;;;-139.71;81.39
3598;BME280;1813;52.016;8.714;2023-01-09T06:34:07;-16261.94;;;-139.71;81.48
3598;BME280;1813;52.016;8.714;2023-01-09T06:36:42;-16261.94;;;-139.71;81.70
3598;BME280;1813;52.016;8.714;2023-01-09T06:39:16;-16261.94;;;-139.71;81.84
3598;BME280;1813;52.016;8.714;2023-01-09T06:41:52;-16261.94;;;-139.71;81.88
3598;BME280;1813;52.016;8.714;2023-01-09T06:44:26;-16261.94;;;-139.71;81.81
3598;BME280;1813;52.016;8.714;2023-01-09T06:46:59;-16261.94;;;-139.71;81.74
3598;BME280;1813;52.016;8.714;2023-01-09T06:49:33;-16261.94;;;-139.71;81.56
3598;BME280;1813;52.016;8.714;2023-01-09T06:52:06;-16261.94;;;-139.71;81.60
3598;BME280;1813;52.016;8.714;2023-01-09T06:54:40;-16261.94;;;-139.71;81.78
3598;BME280;1813;52.016;8.714;2023-01-09T06:57:17;-16261.94;;;-139.71;82.04
3598;BME280;1813;52.016;8.714;2023-01-09T06:59:50;-16261.94;;;-139.71;82.21
3598;BME280;1813;52.016;8.714;2023-01-09T07:02:24;-16261.94;;;-139.71;82.19
3598;BME280;1813;52.016;8.714;2023-01-09T07:04:58;-16261.94;;;-139.71;82.31
3598;BME280;1813;52.016;8.714;2023-01-09T07:07:32;-16261.94;;;-139.71;82.27
3598;BME280;1813;52.016;8.714;2023-01-09T07:10:07;-16261.94;;;-139.71;82.24
3598;BME280;1813;52.016;8.714;2023-01-09T07:12:44;-16261.94;;;-139.71;82.10
3598;BME280;1813;52.016;8.714;2023-01-09T07:15:18;-16261.94;;;-139.71;82.05
3598;BME280;1813;52.016;8.714;2023-01-09T07:17:52;-16261.94;;;-139.71;81.83
3598;BME280;1813;52.016;8.714;2023-01-09T07:20:26;-16261.94;;;-139.71;81.82
3598;BME280;1813;52.016;8.714;2023-01-09T07:23:00;-16261.94;;;-139.71;81.63
3598;BME280;1813;52.016;8.714;2023-01-09T07:25:33;-16261.94;;;-139.71;81.58
3598;BME280;1813;52.016;8.714;2023-01-09T07:28:10;-16261.94;;;-139.71;81.51
3598;BME280;1813;52.016;8.714;2023-01-09T07:30:44;-16261.94;;;-139.71;81.42
3598;BME280;1813;52.016;8.714;2023-01-09T07:33:17;-16261.94;;;-139.71;81.22
3598;BME280;1813;52.016;8.714;2023-01-09T07:35:51;-16261.94;;;-139.71;81.22
3598;BME280;1813;52.016;8.714;2023-01-09T07:38:25;-16261.94;;;-139.71;81.16
3598;BME280;1813;52.016;8.714;2023-01-09T07:40:58;-16261.94;;;-139.71;80.91
3598;BME280;1813;52.016;8.714;2023-01-09T07:43:35;-16261.94;;;-139.71;80.67
3598;BME280;1813;52.016;8.714;2023-01-09T07:46:09;-16261.94;;;-139.71;80.51
3598;BME280;1813;52.016;8.714;2023-01-09T07:48:42;-16261.94;;;-139.71;80.46
3598;BME280;1813;52.016;8.714;2023-01-09T07:51:16;-16261.94;;;-139.71;80.38
3598;BME280;1813;52.016;8.714;2023-01-09T07:53:50;-16261.94;;;-139.71;80.15
3598;BME280;1813;52.016;8.714;2023-01-09T07:56:23;-16261.94;;;-139.71;79.89
3598;BME280;1813;52.016;8.714;2023-01-09T07:59:00;-16261.94;;;-139.71;79.69
3598;BME280;1813;52.016;8.714;2023-01-09T08:01:33;-16261.94;;;-139.71;79.57
3598;BME280;1813;52.016;8.714;2023-01-09T08:04:07;-16261.94;;;-139.71;79.39
3598;BME280;1813;52.016;8.714;2023-01-09T08:06:41;-16261.94;;;-139.71;79.01
3598;BME280;1813;52.016;8.714;2023-01-09T08:09:15;-16261.94;;;-139.71;78.71
3598;BME280;1813;52.016;8.714;2023-01-09T08:11:48;-16261.94;;;-139.71;78.48
3598;BME280;1813;52.016;8.714;2023-01-09T08:14:25;-16261.94;;;-139.71;78.23
3598;BME280;1813;52.016;8.714;2023-01-09T08:16:58;-16261.94;;;-139.71;78.14
3598;BME280;1813;52.016;8.714;2023-01-09T08:19:32;-16261.94;;;-139.71;77.91
3598;BME280;1813;52.016;8.714;2023-01-09T08:22:06;-16261.94;;;-139.71;77.63
3598;BME280;1813;52.016;8.714;2023-01-09T08:24:39;-16261.94;;;-139.71;77.29
3598;BME280;1813;52.016;8.714;2023-01-09T08:27:13;-16261.94;;;-139.71;77.07
3598;BME280;1813;52.016;8.714;2023-01-09T08:29:49;-16261.94;;;-139.71;76.79
3598;BME280;1813;52.016;8.714;2023-01-09T08:32:23;-16261.94;;;-139.71;76.75
3598;BME280;1813;52.016;8.714;2023-01-09T08:34:57;-16261.94;;;-139.71;76.60
3598;BME280;1813;52.016;8.714;2023-01-09T08:37:30;-16261.94;;;-139.71;76.24
3598;BME280;1813;52.016;8.714;2023-01-09T08:40:05;-16261.94;;;-139.71;76.18
3598;BME280;1813;52.016;8.714;2023-01-09T08:42:39;-16261.94;;;-139.71;75.96
3598;BME280;1813;52.016;8.714;2023-01-09T08:45:28;-16261.94;;;-139.71;75.79
3598;BME280;1813;52.016;8.714;2023-01-09T08:48:15;-16261.94;;;-139.71;76.03
3598;BME280;1813;52.016;8.714;2023-01-09T08:50:49;-16261.94;;;-139.71;76.01
3598;BME280;1813;52.016;8.714;2023-01-09T08:53:24;-16261.94;;;-139.71;76.01
3598;BME280;1813;52.016;8.714;2023-01-09T08:55:58;-16261.94;;;-139.71;76.10
3598;BME280;1813;52.016;8.714;2023-01-09T08:58:32;-16261.94;;;-139.71;76.48
3598;BME280;1813;52.016;8.714;2023-01-09T09:01:09;-16261.94;;;-139.71;76.72
3598;BME280;1813;52.016;8.714;2023-01-09T09:03:43;-16261.94;;;-139.71;77.14
3598;BME280;1813;52.016;8.714;2023-01-09T09:06:17;-16261.94;;;-139.71;77.41
3598;BME280;1813;52.016;8.714;2023-01-09T09:08:51;-16261.94;;;-139.71;77.29
3598;BME280;1813;52.016;8.714;2023-01-09T09:11:26;-16261.94;;;-139.71;77.24
3598;BME280;1813;52.016;8.714;2023-01-09T09:14:00;-16261.94;;;-139.71;77.07
3598;BME280;1813;52.016;8.714;2023-01-09T09:16:57;-16261.94;;;-139.71;76.98
3598;BME280;1813;52.016;8.714;2023-01-09T09:19:31;-16261.94;;;-139.71;76.88
3598;BME280;1813;52.016;8.714;2023-01-09T09:22:05;-16261.94;;;-139.71;76.62
3598;BME280;1813;52.016;8.714;2023-01-09T09:24:39;-16261.94;;;-139.71;76.23
3598;BME280;1813;52.016;8.714;2023-01-09T09:27:13;-16261.94;;;-139.71;75.98
3598;BME280;1813;52.016;8.714;2023-01-09T09:29:47;-16261.94;;;-139.71;76.00
3598;BME280;1813;52.016;8.714;2023-01-09T09:32:24;-16261.94;;;-139.71;76.99
3598;BME280;1813;52.016;8.714;2023-01-09T09:34:58;-16261.94;;;-139.71;76.97
3598;BME280;1813;52.016;8.714;2023-01-09T09:37:32;-16261.94;;;-139.71;75.51
3598;BME280;1813;52.016;8.714;2023-01-09T09:40:15;-16261.94;;;-139.71;72.82
3598;BME280;1813;52.016;8.714;2023-01-09T09:46:14;-16261.94;;;-139.71;72.03
3598;BME280;1813;52.016;8.714;2023-01-09T09:48:56;-16261.94;;;-139.71;72.84
3598;BME280;1813;52.016;8.714;2023-01-09T09:51:38;-16261.94;;;-139.71;73.32
3598;BME280;1813;52.016;8.714;2023-01-09T09:54:19;-16261.94;;;-139.71;72.66
3598;BME280;1813;52.016;8.714;2023-01-09T09:56:56;-16261.94;;;-139.71;71.34
3598;BME280;1813;52.016;8.714;2023-01-09T09:59:32;-16261.94;;;-139.71;70.77
3598;BME280;1813;52.016;8.714;2023-01-09T10:02:21;-16261.94;;;-139.71;68.97
3598;BME280;1813;52.016;8.714;2023-01-09T10:05:04;-16261.94;;;-139.71;68.95
3598;BME280;1813;52.016;8.714;2023-01-09T10:07:44;-16261.94;;;-139.71;67.62
3598;BME280;1813;52.016;8.714;2023-01-09T10:10:28;-16261.94;;;-139.71;67.84
3598;BME280;1813;52.016;8.714;2023-01-09T10:13:07;-16261.94;;;-139.71;66.62
3598;BME280;1813;52.016;8.714;2023-01-09T10:16:01;-16261.94;;;-139.71;65.26
3598;BME280;1813;52.016;8.714;2023-01-09T10:18:46;-16261.94;;;-139.71;64.98
3598;BME280;1813;52.016;8.714;2023-01-09T10:21:32;-16261.94;;;-139.71;65.00
3598;BME280;1813;52.016;8.714;2023-01-09T10:24:17;-16261.94;;;-139.71;64.87
3598;BME280;1813;52.016;8.714;2023-01-09T10:26:55;-16261.94;;;-139.71;65.59
3598;BME280;1813;52.016;8.714;2023-01-09T10:29:38;-16261.94;;;-139.71;66.82
3598;BME280;1813;52.016;8.714;2023-01-09T10:32:27;-16261.94;;;-139.71;65.42
3598;BME280;1813;52.016;8.714;2023-01-09T10:38:27;-16261.94;;;-139.71;65.75
3598;BME280;1813;52.016;8.714;2023-01-09T10:41:06;-16261.94;;;-139.71;66.23
3598;BME280;1813;52.016;8.714;2023-01-09T10:43:46;-16261.94;;;-139.71;66.95
3598;BME280;1813;52.016;8.714;2023-01-09T10:46:26;-16261.94;;;-139.71;67.23
3598;BME280;1813;52.016;8.714;2023-01-09T10:49:01;-16261.94;;;-139.71;67.32
3598;BME280;1813;52.016;8.714;2023-01-09T10:51:42;-16261.94;;;-139.71;67.24
3598;BME280;1813;52.016;8.714;2023-01-09T10:54:21;-16261.94;;;-139.71;67.62
3598;BME280;1813;52.016;8.714;2023-01-09T10:56:58;-16261.94;;;-139.71;67.95
3598;BME280;1813;52.016;8.714;2023-01-09T10:59:35;-16261.94;;;-139.71;67.83
3598;BME280;1813;52.016;8.714;2023-01-09T11:02:27;-16261.94;;;-139.71;67.75
3598;BME280;1813;52.016;8.714;2023-01-09T11:05:01;-16261.94;;;-139.71;67.58
3598;BME280;1813;52.016;8.714;2023-01-09T11:07:37;-16261.94;;;-139.71;67.46
3598;BME280;1813;52.016;8.714;2023-01-09T11:10:14;-16261.94;;;-139.71;67.67
3598;BME280;1813;52.016;8.714;2023-01-09T11:12:48;-16261.94;;;-139.71;67.78
3598;BME280;1813;52.016;8.714;2023-01-09T11:15:26;-16261.94;;;-139.71;67.99
3598;BME280;1813;52.016;8.714;2023-01-09T11:18:18;-16261.94;;;-139.71;68.37
3598;BME280;1813;52.016;8.714;2023-01-09T11:20:54;-16261.94;;;-139.71;67.69
3598;BME280;1813;52.016;8.714;2023-01-09T11:23:30;-16261.94;;;-139.71;67.82
3598;BME280;1813;52.016;8.714;2023-01-09T11:26:20;-16261.94;;;-139.71;68.28
3598;BME280;1813;52.016;8.714;2023-01-09T11:29:04;-16261.94;;;-139.71;67.78
3598;BME280;1813;52.016;8.714;2023-01-09T11:31:40;-16261.94;;;-139.71;68.16
3598;BME280;1813;52.016;8.714;2023-01-09T11:34:15;-16261.94;;;-139.71;68.22
3598;BME280;1813;52.016;8.714;2023-01-09T11:36:51;-16261.94;;;-139.71;68.16
3598;BME280;1813;52.016;8.714;2023-01-09T11:39:26;-16261.94;;;-139.71;68.35
3598;BME280;1813;52.016;8.714;2023-01-09T11:42:06;-16261.94;;;-139.71;68.59
3598;BME280;1813;52.016;8.714;2023-01-09T11:44:40;-16261.94;;;-139.71;68.58
3598;BME280;1813;52.016;8.714;2023-01-09T11:47:24;-16261.94;;;-139.71;68.69
3598;BME280;1813;52.016;8.714;2023-01-09T11:50:07;-16261.94;;;-139.71;68.45
3598;BME280;1813;52.016;8.714;2023-01-09T11:52:41;-16261.94;;;-139.71;68.11
3598;BME280;1813;52.016;8.714;2023-01-09T11:55:16;-16261.94;;;-139.71;67.92
3598;BME280;1813;52.016;8.714;2023-01-09T11:57:54;-16261.94;;;-139.71;68.00
3598;BME280;1813;52.016;8.714;2023-01-09T12:00:32;-16261.94;;;-139.71;67.84
3598;BME280;1813;52.016;8.714;2023-01-09T12:03:12;-16261.94;;;-139.71;67.99
3598;BME280;1813;52.016;8.714;2023-01-09T12:05:54;-16261.94;;;-139.71;68.12
3598;BME280;1813;52.016;8.714;2023-01-09T12:08:35;-16261.94;;;-139.71;68.32
3598;BME280;1813;52.016;8.714;2023-01-09T12:11:25;-16261.94;;;-139.71;68.07
3598;BME280;1813;52.016;8.714;2023-01-09T12:17:18;-16261.94;;;-139.71;67.56
3598;BME280;1813;52.016;8.714;2023-01-09T12:20:09;-16261.94;;;-139.71;67.42
3598;BME280;1813;52.016;8.714;2023-01-09T12:22:56;-16261.94;;;-139.71;67.49
3598;BME280;1813;52.016;8.714;2023-01-09T12:25:39;-16261.94;;;-139.71;67.65
3598;BME280;1813;52.016;8.714;2023-01-09T12:28:35;-16261.94;;;-139.71;67.78
3598;BME280;1813;52.016;8.714;2023-01-09T12:31:24;-16261.94;;;-139.71;67.60
3598;BME280;1813;52.016;8.714;2023-01-09T12:34:07;-16261.94;;;-139.71;67.50
3598;BME280;1813;52.016;8.714;2023-01-09T12:36:52;-16261.94;;;-139.71;67.79
3598;BME280;1813;52.016;8.714;2023-01-09T12:39:36;-16261.94;;;-139.71;67.86
3598;BME280;1813;52.016;8.714;2023-01-09T12:42:28;-16261.94;;;-139.71;67.67
3598;BME280;1813;52.016;8.714;2023-01-09T12:45:26;-16261.94;;;-139.71;67.63
3598;BME280;1813;52.016;8.714;2023-01-09T12:48:14;-16261.94;;;-139.71;67.65
3598;BME280;1813;52.016;8.714;2023-01-09T12:51:18;-16261.94;;;-139.71;68.17
3598;BME280;1813;52.016;8.714;2023-01-09T12:53:58;-16261.94;;;-139.71;68.42
3598;BME280;1813;52.016;8.714;2023-01-09T12:56:36;-16261.94;;;-139.71;68.36
3598;BME280;1813;52.016;8.714;2023-01-09T12:59:21;-16261.94;;;-139.71;68.34
3598;BME280;1813;52.016;8.714;2023-01-09T13:02:05;-16261.94;;;-139.71;68.87
3598;BME280;1813;52.016;8.714;2023-01-09T13:04:50;-16261.94;;;-139.71;69.64
3598;BME280;1813;52.016;8.714;2023-01-09T13:07:29;-16261.94;;;-139.71;70.28
3598;BME280;1813;52.016;8.714;2023-01-09T13:10:08;-16261.94;;;-139.71;71.09
3598;BME280;1813;52.016;8.714;2023-01-09T13:12:49;-16261.94;;;-139.71;71.98
3598;BME280;1813;52.016;8.714;2023-01-09T13:15:27;-16261.94;;;-139.71;72.50
3598;BME280;1813;52.016;8.714;2023-01-09T13:18:06;-16261.94;;;-139.71;73.38
3598;BME280;1813;52.016;8.714;2023-01-09T13:20:47;-16261.94;;;-139.71;73.85
3598;BME280;1813;52.016;8.714;2023-01-09T13:23:28;-16261.94;;;-139.71;74.36
3598;BME280;1813;52.016;8.714;2023-01-09T13:26:04;-16261.94;;;-139.71;74.48
3598;BME280;1813;52.016;8.714;2023-01-09T13:28:42;-16261.94;;;-139.71;74.44
3598;BME280;1813;52.016;8.714;2023-01-09T13:34:24;-16261.94;;;-139.71;74.49
3598;BME280;1813;52.016;8.714;2023-01-09T13:37:02;-16261.94;;;-139.71;74.62
3598;BME280;1813;52.016;8.714;2023-01-09T13:39:35;-16261.94;;;-139.71;74.69
3598;BME280;1813;52.016;8.714;2023-01-09T13:42:17;-16261.94;;;-139.71;75.11
3598;BME280;1813;52.016;8.714;2023-01-09T13:45:18;-16261.94;;;-139.71;75.91
3598;BME280;1813;52.016;8.714;2023-01-09T13:48:16;-16261.94;;;-139.71;76.15
3598;BME280;1813;52.016;8.714;2023-01-09T13:54:11;-16261.94;;;-139.71;74.79
3598;BME280;1813;52.016;8.714;2023-01-09T13:59:48;-16261.94;;;-139.71;72.47
3598;BME280;1813;52.016;8.714;2023-01-09T14:02:52;-16261.94;;;-139.71;72.02
3598;BME280;1813;52.016;8.714;2023-01-09T14:06:04;-16261.94;;;-139.71;72.74
3598;BME280;1813;52.016;8.714;2023-01-09T14:08:42;-16261.94;;;-139.71;73.91